Mars Hill, North Carolina
Current Conditions -  °F | °C
As of 3:54 AM on Monday 24 Nov 2014 (Local Time) from KAVL Reporting Station
Clear Clear  
Wind Chill: 54°   Ceiling: Unl
Heat Index: 54°   Visibility: 10mi
Dew Point: 50°   Wind: 16mph
Humidity: 86%   Direction: 190°S
Pressure: 29.73"   Gusts: NA
Location:  35.83°N, 82.55°W
Report Text: KAVL 240854Z AUTO 19014KT 10SM CLR 12/10 A2973 RMK AO2 SLP057 T01220100 51006
Loading
Personal Weather Stations






























Interactive Weather Map New forecast layout! Learn more

10-Day Weather Forecast

Advertisements
Track Severe Weather on mobile